Time;durP1;ratioP1;P1;durP2;ratioP2;P2;SDS_P1;SDS_P2;PMS_P1;PMS_P2;Temp;Humidity;BMP_temperature;BMP_pressure;BME280_temperature;BME280_humidity;BME280_pressure;Samples;Min_cycle;Max_cycle;Signal;HPM_P1;HPM_P2
2021/12/31 00:03:18;;;;;;;23.98;12.82;;;;;;;6.32;67.31;100286.66;7658187;32;40769;-76
2021/12/31 00:07:34;;;;;;;25.60;12.85;;;;;;;6.61;66.50;100270.59;7658125;32;37664;-75
2021/12/31 00:11:51;;;;;;;19.27;11.48;;;;;;;6.63;66.38;100271.16;7657490;32;37141;-76
2021/12/31 00:16:07;;;;;;;18.52;11.90;;;;;;;6.52;66.73;100264.69;7657963;32;39117;-75
2021/12/31 00:20:25;;;;;;;18.83;10.65;;;;;;;6.47;67.23;100266.41;7657682;32;41088;-75
2021/12/31 00:24:41;;;;;;;20.25;11.80;;;;;;;6.62;66.66;100265.97;7657852;32;38095;-75
2021/12/31 00:28:57;;;;;;;17.60;11.07;;;;;;;6.63;66.82;100262.22;7657898;32;37275;-76
2021/12/31 00:33:13;;;;;;;19.08;11.25;;;;;;;6.72;66.32;100264.34;7657823;32;39299;-75
2021/12/31 00:37:31;;;;;;;134.85;15.55;;;;;;;6.57;66.92;100255.84;7657701;32;40037;-76
2021/12/31 00:41:47;;;;;;;171.75;17.42;;;;;;;6.27;68.34;100262.16;7657422;32;38031;-75
2021/12/31 00:46:04;;;;;;;90.45;16.05;;;;;;;6.30;68.46;100267.09;7657517;32;37206;-75
2021/12/31 00:50:20;;;;;;;75.85;14.75;;;;;;;6.05;68.99;100275.38;7657512;32;39929;-76
2021/12/31 00:54:38;;;;;;;36.92;13.88;;;;;;;6.18;68.48;100282.50;7657337;32;39979;-76
2021/12/31 00:58:54;;;;;;;26.10;14.45;;;;;;;6.45;67.50;100279.38;7657102;32;38803;-76
2021/12/31 01:03:11;;;;;;;22.87;13.25;;;;;;;6.34;67.97;100286.44;7657114;32;37534;-76
2021/12/31 01:07:27;;;;;;;24.83;14.13;;;;;;;6.15;68.61;100281.06;7657035;32;39296;-76
2021/12/31 01:11:47;;;;;;;24.40;13.90;;;;;;;6.51;67.48;100281.16;7656837;32;39911;-75
2021/12/31 01:16:04;;;;;;;23.52;13.10;;;;;;;6.45;67.64;100279.38;7656884;32;38871;-76
2021/12/31 01:20:21;;;;;;;22.60;14.00;;;;;;;6.44;67.71;100294.81;7656549;32;37941;-76
2021/12/31 01:24:37;;;;;;;25.95;14.15;;;;;;;6.22;68.22;100294.50;7659806;32;40116;-75
2021/12/31 01:28:53;;;;;;;23.98;14.20;;;;;;;6.62;67.18;100290.38;7660000;32;39996;-75
2021/12/31 01:33:09;;;;;;;21.80;13.25;;;;;;;6.57;67.37;100285.63;7659890;32;38779;-75
2021/12/31 01:37:26;;;;;;;22.52;13.07;;;;;;;6.41;68.06;100278.19;7659911;32;37178;-75
2021/12/31 01:41:42;;;;;;;78.25;16.08;;;;;;;6.58;67.36;100268.34;7659811;32;39668;-75
2021/12/31 01:46:00;;;;;;;26.30;15.20;;;;;;;6.38;68.12;100274.91;7659812;32;40499;-75
2021/12/31 01:50:16;;;;;;;48.40;16.80;;;;;;;6.51;67.78;100283.88;7659718;32;37817;-75
2021/12/31 01:54:34;;;;;;;27.70;14.82;;;;;;;6.54;67.67;100284.22;7659644;32;37966;-76
2021/12/31 01:58:54;;;;;;;30.33;15.63;;;;;;;6.53;67.56;100285.28;7659642;32;39122;-75
2021/12/31 02:03:11;;;;;;;36.88;15.32;;;;;;;6.61;67.45;100294.97;7659667;32;39608;-75
2021/12/31 02:07:27;;;;;;;162.40;18.58;;;;;;;6.59;67.53;100286.25;7646180;32;38076;-75
2021/12/31 02:11:43;;;;;;;21.30;13.13;;;;;;;6.39;68.03;100284.66;7659357;32;37415;-75
2021/12/31 02:15:59;;;;;;;25.85;14.20;;;;;;;6.42;68.18;100280.69;7645884;32;39430;-75
2021/12/31 02:20:17;;;;;;;25.45;13.98;;;;;;;6.54;67.74;100278.00;7659342;32;39983;-75
2021/12/31 02:24:36;;;;;;;27.45;14.87;;;;;;;6.63;67.78;100265.75;7659172;32;38778;-75
2021/12/31 02:28:52;;;;;;;107.85;17.15;;;;;;;6.61;67.51;100257.03;7659308;32;36457;-76
2021/12/31 02:33:08;;;;;;;27.60;15.43;;;;;;;6.61;67.55;100267.87;7659039;32;39170;-76
2021/12/31 02:37:24;;;;;;;22.90;13.55;;;;;;;6.72;67.18;100258.09;7658932;32;40863;-75
2021/12/31 02:41:40;;;;;;;38.08;15.98;;;;;;;6.51;67.62;100257.59;7659080;32;38020;-76
2021/12/31 02:45:57;;;;;;;24.85;14.13;;;;;;;6.58;67.60;100257.50;7659149;32;37146;-76
2021/12/31 02:50:16;;;;;;;30.62;15.18;;;;;;;6.64;67.25;100264.69;7659138;32;40040;-77
2021/12/31 02:54:35;;;;;;;24.48;14.02;;;;;;;6.58;67.57;100249.38;7659165;32;39813;-75
2021/12/31 02:58:52;;;;;;;21.25;13.23;;;;;;;6.46;67.91;100245.81;7658886;32;39284;-76
2021/12/31 03:03:09;;;;;;;26.40;15.32;;;;;;;6.36;68.76;100254.50;7876484;27;37159;-74
2021/12/31 03:07:26;;;;;;;120.32;19.60;;;;;;;6.43;68.81;100249.00;7619269;32;39050;-74
2021/12/31 03:11:42;;;;;;;372.85;28.62;;;;;;;6.50;68.05;100260.53;7632478;32;40792;-74
2021/12/31 03:16:01;;;;;;;196.85;20.67;;;;;;;6.57;67.46;100285.63;7619121;32;38322;-74
2021/12/31 03:20:26;;;;;;;142.05;20.17;;;;;;;6.19;69.26;100293.09;7632324;32;37408;-75
2021/12/31 03:24:42;;;;;;;36.03;15.60;;;;;;;6.15;69.52;100286.47;7632581;32;39406;-75
2021/12/31 03:28:59;;;;;;;30.17;15.40;;;;;;;6.49;68.36;100280.59;7632582;32;40773;-74
2021/12/31 03:33:15;;;;;;;35.45;16.45;;;;;;;6.66;67.66;100273.41;7618783;32;37951;-74
2021/12/31 03:37:31;;;;;;;28.70;16.35;;;;;;;6.56;67.80;100273.97;7632166;32;37297;-73
2021/12/31 03:41:47;;;;;;;25.92;14.82;;;;;;;6.43;68.39;100281.50;7632210;32;39411;-73
2021/12/31 03:46:03;;;;;;;31.60;16.08;;;;;;;6.50;68.31;100274.09;7631415;32;39863;-74
2021/12/31 03:50:20;;;;;;;28.05;15.23;;;;;;;6.45;68.28;100269.38;7632010;32;38077;-74
2021/12/31 03:54:36;;;;;;;27.77;15.13;;;;;;;6.68;67.72;100265.88;7632164;32;37268;-73
2021/12/31 03:58:52;;;;;;;39.35;17.20;;;;;;;6.73;67.82;100255.16;7632067;32;39343;-75
2021/12/31 04:03:10;;;;;;;126.15;19.23;;;;;;;6.51;68.58;100256.78;7631827;32;40941;-74
2021/12/31 04:07:26;;;;;;;29.25;15.02;;;;;;;6.08;70.31;100266.00;7631943;32;37983;-75
2021/12/31 04:11:42;;;;;;;25.77;15.20;;;;;;;6.36;68.70;100260.78;7631932;32;37211;-74
2021/12/31 04:15:58;;;;;;;31.98;16.27;;;;;;;6.38;68.73;100242.41;7631888;32;40133;-75
2021/12/31 04:20:32;;;;;;;28.98;15.98;;;;;;;6.65;67.86;100251.97;7631731;32;39758;-74
2021/12/31 04:29:04;;;;;;;30.98;15.63;;;;;;;6.67;67.99;100260.69;7631826;32;37831;-74
2021/12/31 04:33:20;;;;;;;31.75;17.33;;;;;;;6.73;67.54;100248.91;7631424;32;39173;-74
2021/12/31 04:37:38;;;;;;;27.67;15.63;;;;;;;6.75;68.18;100250.31;7631565;32;39875;-74
2021/12/31 04:41:54;;;;;;;31.92;16.62;;;;;;;6.90;68.01;100259.88;7631311;32;38740;-75
2021/12/31 04:46:10;;;;;;;28.48;15.63;;;;;;;6.87;68.35;100257.66;7631376;32;36999;-74
2021/12/31 04:50:27;;;;;;;33.40;16.10;;;;;;;7.00;67.99;100260.09;7631351;32;39381;-75
2021/12/31 04:54:44;;;;;;;30.30;14.55;;;;;;;6.90;68.73;100257.19;7631187;32;40816;-74
2021/12/31 04:59:00;;;;;;;26.98;14.35;;;;;;;7.07;68.70;100258.09;7631038;32;38040;-74
2021/12/31 05:03:16;;;;;;;29.85;14.80;;;;;;;7.00;69.54;100256.56;7630955;32;37043;-74
2021/12/31 05:07:32;;;;;;;30.70;17.20;;;;;;;7.03;69.13;100256.91;7630958;32;39121;-75
2021/12/31 05:11:48;;;;;;;32.25;16.25;;;;;;;7.11;69.68;100261.16;7630820;32;40517;-74
2021/12/31 05:16:06;;;;;;;27.83;16.17;;;;;;;7.35;69.49;100261.97;7630560;32;38480;-74
2021/12/31 05:20:22;;;;;;;29.35;16.20;;;;;;;6.93;72.33;100264.81;7630592;32;38079;-74
2021/12/31 05:24:39;;;;;;;37.00;16.87;;;;;;;7.57;71.19;100253.16;7630529;32;39035;-74
2021/12/31 05:28:55;;;;;;;32.38;16.17;;;;;;;7.41;72.01;100250.13;7630600;32;39967;-73
2021/12/31 05:33:11;;;;;;;31.27;15.45;;;;;;;7.47;71.74;100259.22;7630274;32;38898;-74
2021/12/31 05:37:27;;;;;;;27.67;16.60;;;;;;;7.49;73.49;100260.63;7630220;32;37274;-74
2021/12/31 05:41:43;;;;;;;26.30;16.05;;;;;;;7.77;73.08;100259.00;7629913;32;40138;-75
2021/12/31 05:46:00;;;;;;;28.83;15.77;;;;;;;8.09;71.97;100262.06;7629968;32;40099;-75
2021/12/31 05:50:27;;;;;;;28.05;15.63;;;;;;;8.16;71.79;100272.75;7629862;32;37969;-75
2021/12/31 05:54:44;;;;;;;33.47;17.85;;;;;;;8.17;72.03;100271.69;7630094;32;37210;-75
2021/12/31 05:59:00;;;;;;;39.35;18.58;;;;;;;8.52;70.22;100280.72;7629700;32;39390;-74
2021/12/31 06:03:16;;;;;;;29.23;16.80;;;;;;;8.20;71.33;100289.41;7615849;32;39872;-75
2021/12/31 06:07:32;;;;;;;32.30;17.90;;;;;;;8.24;71.64;100285.13;7616799;32;37929;-74
2021/12/31 06:11:48;;;;;;;30.95;16.90;;;;;;;8.38;71.49;100294.63;7633278;32;38431;-75
2021/12/31 06:16:07;;;;;;;30.05;16.33;;;;;;;8.45;71.61;100289.88;7633292;32;39426;-75
2021/12/31 06:20:25;;;;;;;32.33;16.98;;;;;;;8.56;71.42;100299.03;7633118;32;40032;-73
2021/12/31 06:24:42;;;;;;;29.65;16.85;;;;;;;8.32;72.31;100302.94;7633019;32;38050;-75
2021/12/31 06:28:58;;;;;;;30.40;17.52;;;;;;;8.61;71.57;100301.81;7633177;32;38022;-74
2021/12/31 06:33:14;;;;;;;28.00;16.80;;;;;;;8.47;72.23;100305.94;7633120;32;39968;-74
2021/12/31 06:37:30;;;;;;;34.20;18.45;;;;;;;8.41;72.65;100309.59;7633416;32;39549;-74
2021/12/31 06:41:46;;;;;;;31.73;18.10;;;;;;;8.62;71.94;100313.50;7632657;32;38595;-74
2021/12/31 06:46:02;;;;;;;28.77;16.98;;;;;;;8.28;73.33;100319.72;7632947;32;37965;-75
2021/12/31 06:50:19;;;;;;;31.87;17.48;;;;;;;8.56;72.11;100312.63;7633063;32;39286;-75
2021/12/31 06:54:36;;;;;;;30.23;17.12;;;;;;;8.30;71.89;100322.19;7632858;32;40053;-74
2021/12/31 06:58:52;;;;;;;32.03;17.00;;;;;;;8.72;70.97;100340.06;7631658;32;38470;-75
2021/12/31 07:03:13;;;;;;;35.03;17.98;;;;;;;8.46;71.88;100334.19;7632566;32;36861;-75
2021/12/31 07:07:29;;;;;;;29.83;17.05;;;;;;;8.43;71.58;100345.53;7632444;32;39304;-76
2021/12/31 07:11:45;;;;;;;42.40;18.02;;;;;;;8.62;70.91;100357.00;7629227;32;41273;-76
2021/12/31 07:16:01;;;;;;;35.20;17.83;;;;;;;8.52;71.65;100354.94;7629087;32;38074;-75
2021/12/31 07:20:17;;;;;;;35.88;19.33;;;;;;;8.56;71.56;100358.81;7628101;32;36949;-74
2021/12/31 07:24:34;;;;;;;35.03;18.90;;;;;;;8.48;72.25;100361.91;7630758;32;39380;-75
2021/12/31 07:28:50;;;;;;;35.83;18.98;;;;;;;8.81;71.57;100366.59;7632391;32;40716;-76
2021/12/31 07:33:13;;;;;;;32.63;18.33;;;;;;;8.92;71.50;100362.16;7632340;32;39163;-76
2021/12/31 07:37:29;;;;;;;67.37;19.40;;;;;;;8.97;71.64;100364.12;7632442;32;37228;-77
2021/12/31 07:41:45;;;;;;;34.75;19.60;;;;;;;9.02;71.09;100359.59;7632233;32;39296;-75
2021/12/31 07:46:01;;;;;;;35.33;19.98;;;;;;;8.92;71.79;100345.84;7618892;32;40807;-77
2021/12/31 07:50:17;;;;;;;39.25;19.15;;;;;;;8.82;72.31;100346.47;7632046;32;38927;-75
2021/12/31 07:54:33;;;;;;;36.60;20.00;;;;;;;8.72;72.91;100350.94;7632228;32;37282;-76
2021/12/31 07:58:49;;;;;;;35.10;18.87;;;;;;;9.16;72.27;100345.66;7632166;32;40163;-77
2021/12/31 08:03:05;;;;;;;39.00;18.45;;;;;;;9.28;72.21;100357.28;7631807;32;39935;-76
2021/12/31 08:07:22;;;;;;;31.67;17.87;;;;;;;9.32;73.61;100346.72;7631866;32;37921;-77
2021/12/31 08:11:41;;;;;;;32.70;18.25;;;;;;;9.84;72.11;100350.94;7632020;32;37409;-75
2021/12/31 08:15:57;;;;;;;28.05;18.23;;;;;;;9.74;71.91;100357.94;7618831;32;40169;-77
2021/12/31 08:20:13;;;;;;;33.22;18.98;;;;;;;10.14;71.08;100356.78;7637022;32;40608;-77
2021/12/31 08:24:29;;;;;;;30.55;17.80;;;;;;;10.00;71.55;100355.50;7630825;32;38743;-76
2021/12/31 08:28:45;;;;;;;29.23;18.58;;;;;;;10.16;71.35;100370.16;7630654;32;37184;-77
2021/12/31 08:33:02;;;;;;;32.65;19.35;;;;;;;10.29;70.77;100368.91;7631007;32;39318;-77
2021/12/31 08:37:18;;;;;;;28.33;17.95;;;;;;;10.09;71.93;100364.88;7653078;32;39945;-77
2021/12/31 08:41:38;;;;;;;33.05;18.20;;;;;;;10.43;70.59;100359.28;7636385;32;38635;-76
2021/12/31 08:46:03;;;;;;;27.87;17.12;;;;;;;10.35;70.48;100367.94;7604164;32;37432;-75
2021/12/31 08:50:19;;;;;;;27.87;16.45;;;;;;;10.36;70.49;100371.47;7643913;32;39262;-76
2021/12/31 08:54:37;;;;;;;27.60;15.45;;;;;;;10.48;70.17;100378.41;7627148;32;39865;-76
2021/12/31 08:58:54;;;;;;;28.08;16.10;;;;;;;10.50;70.22;100380.88;7616438;32;38179;-77
2021/12/31 09:03:10;;;;;;;27.10;17.08;;;;;;;10.85;69.51;100377.69;7616335;32;38043;-77
2021/12/31 09:07:26;;;;;;;25.23;16.15;;;;;;;10.76;70.09;100379.22;7615241;32;39393;-75
2021/12/31 09:11:43;;;;;;;28.48;16.70;;;;;;;10.93;69.36;100375.56;7616246;32;39568;-77
2021/12/31 09:15:59;;;;;;;25.70;15.60;;;;;;;11.00;69.50;100378.88;7604176;32;38049;-76
2021/12/31 09:20:16;;;;;;;28.95;16.62;;;;;;;11.27;68.39;100371.47;7616513;32;37182;-76
2021/12/31 09:24:32;;;;;;;22.73;14.45;;;;;;;11.27;68.66;100374.19;7629897;32;39452;-77
2021/12/31 09:28:48;;;;;;;23.77;15.27;;;;;;;11.00;69.04;100389.81;7643524;32;40857;-76
2021/12/31 09:33:04;;;;;;;22.87;15.20;;;;;;;11.17;68.84;100390.50;7656291;32;37797;-77
2021/12/31 09:37:20;;;;;;;21.90;14.65;;;;;;;11.53;68.05;100374.34;7655691;32;37214;-77
2021/12/31 09:41:36;;;;;;;23.70;14.75;;;;;;;11.45;67.58;100374.84;7655089;32;39230;-76
2021/12/31 09:45:53;;;;;;;22.60;14.13;;;;;;;11.66;67.57;100373.09;7659854;32;39661;-75
2021/12/31 09:50:09;;;;;;;25.42;14.65;;;;;;;11.52;67.52;100380.94;7659779;32;38860;-75
2021/12/31 09:54:25;;;;;;;22.40;14.43;;;;;;;11.71;67.05;100380.47;7659923;32;37338;-76
2021/12/31 09:58:42;;;;;;;23.38;13.02;;;;;;;11.69;67.21;100378.00;7659728;32;39427;-76
2021/12/31 10:03:13;;;;;;;24.12;13.57;;;;;;;11.83;66.80;100378.34;7659297;32;39756;-77
2021/12/31 10:07:30;;;;;;;22.25;12.18;;;;;;;12.29;65.30;100364.06;7659597;32;37998;-76
2021/12/31 10:11:47;;;;;;;19.85;13.13;;;;;;;11.87;66.14;100373.19;7659713;32;37314;-76
2021/12/31 10:16:04;;;;;;;21.75;12.85;;;;;;;12.04;65.79;100360.19;7659530;32;39130;-75
2021/12/31 10:20:21;;;;;;;20.40;13.45;;;;;;;12.21;65.77;100352.56;7659496;32;39781;-77
2021/12/31 10:24:39;;;;;;;20.67;12.95;;;;;;;12.42;64.16;100338.13;7659354;32;38037;-74
2021/12/31 10:28:59;;;;;;;18.55;11.50;;;;;;;12.34;64.29;100343.03;7659301;32;37348;-72
2021/12/31 10:33:16;;;;;;;18.48;12.05;;;;;;;12.60;63.96;100318.47;7641663;32;39167;-74
2021/12/31 10:37:40;;;;;;;19.62;12.40;;;;;;;12.86;63.39;100322.00;7618831;32;39942;-75
2021/12/31 10:42:11;;;;;;;19.25;10.70;;;;;;;13.64;63.08;100311.78;7620317;32;37888;-77
2021/12/31 10:46:27;;;;;;;14.87;9.70;;;;;;;13.68;60.22;100310.12;7633064;32;37313;-77
2021/12/31 10:50:51;;;;;;;16.67;10.68;;;;;;;14.03;57.82;100316.53;7632958;32;39526;-77
2021/12/31 10:55:23;;;;;;;17.12;11.20;;;;;;;13.92;59.36;100310.31;7631944;32;40889;-73
2021/12/31 10:59:39;;;;;;;17.42;10.63;;;;;;;13.99;59.05;100296.28;7632885;32;37876;-74
2021/12/31 11:03:55;;;;;;;19.00;11.38;;;;;;;14.01;58.58;100297.63;7635140;32;37359;-74
2021/12/31 11:08:13;;;;;;;19.23;11.40;;;;;;;14.10;58.60;100281.41;7651196;32;39378;-74
2021/12/31 11:12:30;;;;;;;19.20;11.12;;;;;;;14.56;57.35;100281.09;7657995;32;40996;-73
2021/12/31 11:16:46;;;;;;;15.30;8.73;;;;;;;14.58;59.41;100276.16;7639668;32;38170;-74
2021/12/31 11:21:06;;;;;;;15.73;9.13;;;;;;;14.22;59.69;100262.69;7657945;32;37844;-74
2021/12/31 11:25:25;;;;;;;26.20;15.15;;;;;;;15.17;56.71;100254.22;7658332;32;39993;-73
2021/12/31 11:29:42;;;;;;;16.62;10.80;;;;;;;15.90;53.11;100246.75;7657944;32;39996;-73
2021/12/31 11:33:59;;;;;;;17.35;10.63;;;;;;;14.76;54.89;100249.12;7657796;32;38807;-73
2021/12/31 11:38:21;;;;;;;21.95;12.18;;;;;;;14.88;54.64;100243.25;7657605;32;37836;-74
2021/12/31 11:43:13;;;;;;;17.27;10.60;;;;;;;14.92;54.90;100234.16;7643757;32;38641;-73
2021/12/31 11:47:30;;;;;;;16.23;9.77;;;;;;;15.45;54.74;100226.97;7658524;32;40858;-73
2021/12/31 11:51:56;;;;;;;28.48;16.77;;;;;;;15.04;54.82;100228.28;7658899;32;38610;-74
2021/12/31 11:56:12;;;;;;;16.83;10.30;;;;;;;15.21;57.31;100211.31;7658714;32;37028;-74
2021/12/31 12:00:28;;;;;;;12.57;6.37;;;;;;;15.69;56.00;100214.00;7658215;32;40077;-74
2021/12/31 12:05:02;;;;;;;12.05;6.78;;;;;;;16.30;54.59;100214.28;7657265;32;40968;-74
2021/12/31 12:09:18;;;;;;;;;;;;;;;16.53;53.78;100207.81;7658703;32;37315;-74
2021/12/31 12:13:34;;;;;;;9.20;5.43;;;;;;;17.25;51.42;100209.28;7658543;32;36692;-74
2021/12/31 12:17:50;;;;;;;7.80;4.40;;;;;;;17.72;49.54;100205.56;7658273;32;39934;-74
2021/12/31 12:22:06;;;;;;;9.18;5.00;;;;;;;18.22;47.26;100204.72;7658037;32;40496;-74
2021/12/31 12:26:24;;;;;;;7.43;3.80;;;;;;;18.23;48.88;100204.41;7657445;32;38511;-75
2021/12/31 12:30:44;;;;;;;8.10;4.47;;;;;;;18.14;48.34;100207.09;7657947;32;37281;-74
2021/12/31 12:35:23;;;;;;;7.43;3.90;;;;;;;16.95;50.19;100215.38;7657978;32;40119;-77
2021/12/31 12:39:39;;;;;;;7.03;3.78;;;;;;;17.29;49.71;100203.16;7657811;32;40011;-72
2021/12/31 12:43:57;;;;;;;6.32;4.07;;;;;;;17.24;50.13;100207.63;7657644;32;38018;-74
2021/12/31 12:48:13;;;;;;;7.82;4.62;;;;;;;16.41;51.43;100207.47;7657741;32;37860;-75
2021/12/31 12:52:29;;;;;;;6.07;3.92;;;;;;;16.38;51.14;100196.25;7657696;32;39388;-72
2021/12/31 12:56:45;;;;;;;9.02;5.03;;;;;;;16.92;50.57;100204.97;7657508;32;40761;-72
2021/12/31 13:01:03;;;;;;;9.50;4.62;;;;;;;16.12;53.08;100204.91;7657313;32;38035;-74
2021/12/31 13:05:20;;;;;;;8.68;5.40;;;;;;;15.97;53.79;100205.97;7657345;32;37884;-73
2021/12/31 13:09:36;;;;;;;12.27;5.93;;;;;;;16.38;52.74;100205.31;7656947;32;39387;-72
2021/12/31 13:13:52;;;;;;;10.70;5.75;;;;;;;16.87;51.31;100195.69;7657101;32;39885;-73
2021/12/31 13:18:08;;;;;;;9.55;5.45;;;;;;;17.26;50.23;100194.38;7658161;32;37763;-73
2021/12/31 13:22:36;;;;;;;8.23;5.30;;;;;;;17.34;49.89;100184.56;7660250;32;36787;-75
2021/12/31 13:26:57;;;;;;;9.20;5.25;;;;;;;17.51;48.84;100188.66;7660167;32;40094;-74
2021/12/31 13:31:13;;;;;;;8.68;5.80;;;;;;;17.20;49.51;100181.81;7660173;32;40871;-72
2021/12/31 13:35:30;;;;;;;9.65;5.97;;;;;;;18.46;46.68;100185.09;7660003;32;38030;-75
2021/12/31 13:39:46;;;;;;;9.55;5.20;;;;;;;20.61;42.11;100181.47;7646270;32;37792;-73
2021/12/31 13:44:05;;;;;;;7.57;5.32;;;;;;;22.53;36.74;100171.16;7659761;32;40052;-74
2021/12/31 13:48:21;;;;;;;7.95;4.95;;;;;;;24.84;32.45;100162.28;7659453;32;40964;-74
2021/12/31 13:53:00;;;;;;;9.02;5.28;;;;;;;26.20;29.65;100168.19;7659627;32;37929;-74
2021/12/31 13:57:21;;;;;;;11.15;6.50;;;;;;;27.17;28.22;100166.31;7659768;32;37963;-74
2021/12/31 14:01:37;;;;;;;11.52;6.35;;;;;;;29.12;25.29;100153.47;7659545;32;40102;-75
2021/12/31 14:05:57;;;;;;;10.50;5.95;;;;;;;29.51;24.21;100154.94;7659643;32;39972;-74
2021/12/31 14:10:25;;;;;;;8.00;5.05;;;;;;;30.93;22.17;100153.03;7659559;32;38732;-74
2021/12/31 14:14:41;;;;;;;8.65;4.85;;;;;;;31.58;21.45;100150.97;7629818;32;37124;-73
2021/12/31 14:19:00;;;;;;;10.50;5.15;;;;;;;31.33;21.19;100150.97;7658876;32;40109;-75
2021/12/31 14:23:18;;;;;;;8.88;5.40;;;;;;;30.77;21.88;100149.78;7658543;32;39877;-74
2021/12/31 14:27:35;;;;;;;9.57;6.00;;;;;;;31.18;21.13;100149.41;7658429;32;38480;-74
2021/12/31 14:31:51;;;;;;;10.80;6.05;;;;;;;30.61;22.13;100148.16;7645156;32;37710;-76
2021/12/31 14:36:08;;;;;;;11.10;6.22;;;;;;;29.53;23.39;100158.19;7658447;32;40136;-73
2021/12/31 14:40:24;;;;;;;11.77;6.68;;;;;;;28.48;24.80;100148.87;7645624;32;39682;-74
2021/12/31 14:44:40;;;;;;;9.18;5.90;;;;;;;27.26;26.34;100160.47;7658030;32;37908;-74
2021/12/31 14:48:56;;;;;;;9.50;5.80;;;;;;;26.48;27.58;100147.56;7658003;32;37108;-73
2021/12/31 14:53:13;;;;;;;13.50;7.10;;;;;;;24.06;31.58;100156.16;7658176;32;40164;-71
2021/12/31 14:57:30;;;;;;;12.93;7.80;;;;;;;21.78;35.99;100151.72;7657786;32;39861;-72
2021/12/31 15:01:48;;;;;;;11.52;6.30;;;;;;;20.62;38.51;100154.59;7657890;32;37887;-72
2021/12/31 15:06:04;;;;;;;9.13;6.10;;;;;;;18.99;42.69;100159.37;7658107;32;36881;-72
2021/12/31 15:10:20;;;;;;;10.70;6.75;;;;;;;18.55;43.68;100167.41;7658272;32;39815;-72
2021/12/31 15:14:36;;;;;;;11.32;7.15;;;;;;;17.82;45.55;100172.25;7657385;32;39917;-72
2021/12/31 15:18:53;;;;;;;11.40;6.57;;;;;;;17.05;47.86;100160.91;7658149;32;38684;-71
2021/12/31 15:23:09;;;;;;;12.07;7.10;;;;;;;16.50;50.12;100161.63;7657774;32;37437;-73
2021/12/31 15:27:25;;;;;;;12.63;7.53;;;;;;;16.15;51.01;100155.63;7658038;32;40133;-73
2021/12/31 15:31:42;;;;;;;13.77;7.37;;;;;;;15.89;51.75;100157.16;7658065;32;40002;-74
2021/12/31 15:35:59;;;;;;;15.18;8.45;;;;;;;15.85;51.88;100150.59;7658793;32;37723;-74
2021/12/31 15:40:15;;;;;;;18.87;11.35;;;;;;;15.27;54.12;100146.19;7657703;32;37924;-76
2021/12/31 15:44:31;;;;;;;21.62;12.18;;;;;;;15.07;55.13;100147.25;7658442;32;39038;-76
2021/12/31 15:48:48;;;;;;;20.98;12.55;;;;;;;14.88;55.89;100160.91;7658423;32;40707;-74
2021/12/31 15:53:08;;;;;;;21.00;12.27;;;;;;;14.70;55.87;100159.75;7658225;32;37814;-74
2021/12/31 15:57:24;;;;;;;18.40;10.55;;;;;;;14.42;56.10;100164.91;7658414;32;37157;-75
2021/12/31 16:01:40;;;;;;;16.58;9.20;;;;;;;14.05;58.01;100160.81;7658062;32;40149;-76
2021/12/31 16:05:57;;;;;;;13.73;9.13;;;;;;;14.12;58.46;100161.31;7658339;32;40692;-75
2021/12/31 16:10:14;;;;;;;15.55;9.93;;;;;;;13.96;60.04;100157.06;7658202;32;38676;-75
2021/12/31 16:14:31;;;;;;;16.12;9.90;;;;;;;14.07;59.66;100150.38;7658230;32;36882;-75
2021/12/31 16:18:47;;;;;;;15.00;9.77;;;;;;;13.89;60.11;100155.44;7658235;32;40015;-74
2021/12/31 16:23:03;;;;;;;19.17;9.05;;;;;;;13.89;60.06;100154.63;7657920;32;40067;-73
2021/12/31 16:27:20;;;;;;;18.60;10.63;;;;;;;14.01;59.27;100162.50;7657910;32;38055;-75
2021/12/31 16:31:36;;;;;;;17.05;10.60;;;;;;;13.78;60.29;100173.09;7658028;32;37125;-75
2021/12/31 16:35:52;;;;;;;20.92;11.95;;;;;;;13.36;61.52;100174.38;7657879;32;39416;-77
2021/12/31 16:40:15;;;;;;;44.50;22.70;;;;;;;13.41;61.67;100168.88;7657738;32;39995;-75
2021/12/31 16:44:31;;;;;;;99.18;47.05;;;;;;;13.55;60.89;100168.28;7657504;32;38747;-76
2021/12/31 16:48:49;;;;;;;40.90;24.25;;;;;;;13.42;60.95;100170.53;7657377;32;37462;-76
2021/12/31 16:53:06;;;;;;;20.42;14.02;;;;;;;13.33;61.25;100174.94;7657027;32;39007;-76
2021/12/31 16:57:22;;;;;;;16.12;10.13;;;;;;;13.47;60.43;100161.47;7657432;32;40545;-75
2021/12/31 17:01:39;;;;;;;20.95;11.18;;;;;;;13.29;62.27;100160.16;7657075;32;38524;-76
2021/12/31 17:05:56;;;;;;;18.02;10.32;;;;;;;13.07;62.70;100163.25;7652458;32;152589;-75
2021/12/31 17:10:17;;;;;;;16.90;10.05;;;;;;;13.15;62.43;100160.75;7657183;32;39336;-74
2021/12/31 17:14:33;;;;;;;17.15;10.50;;;;;;;13.00;62.85;100158.06;7656532;32;40969;-77
2021/12/31 17:18:49;;;;;;;18.40;11.70;;;;;;;13.06;62.64;100159.72;7656984;32;38734;-77
2021/12/31 17:23:06;;;;;;;17.80;10.60;;;;;;;13.11;62.04;100159.69;7656912;32;37940;-77
2021/12/31 17:27:23;;;;;;;19.55;10.82;;;;;;;13.04;61.84;100153.69;7656734;32;39070;-77
2021/12/31 17:31:43;;;;;;;15.20;9.88;;;;;;;12.95;62.57;100160.81;7656348;32;40238;-77
2021/12/31 17:36:00;;;;;;;19.60;11.52;;;;;;;13.00;62.34;100157.25;7656539;32;37979;-77
2021/12/31 17:40:16;;;;;;;18.37;10.70;;;;;;;12.99;62.56;100161.94;7656560;32;37033;-77
2021/12/31 17:44:32;;;;;;;20.23;11.70;;;;;;;12.94;61.60;100153.72;7656392;32;39207;-76
2021/12/31 17:48:49;;;;;;;17.40;9.80;;;;;;;12.90;61.54;100158.09;7656274;32;39939;-77
2021/12/31 17:53:06;;;;;;;18.23;10.55;;;;;;;13.02;61.23;100144.94;7656137;32;37709;-77
2021/12/31 17:57:22;;;;;;;15.82;9.60;;;;;;;12.75;61.64;100142.56;7656115;32;37728;-76
2021/12/31 18:01:39;;;;;;;15.45;9.38;;;;;;;12.73;61.68;100147.50;7655987;32;39323;-77
2021/12/31 18:05:55;;;;;;;15.35;8.88;;;;;;;12.69;61.87;100147.22;7658809;32;39997;-77
2021/12/31 18:10:12;;;;;;;15.02;9.05;;;;;;;12.99;61.26;100136.47;7659623;32;38689;-76
2021/12/31 18:14:28;;;;;;;15.02;8.50;;;;;;;12.94;61.51;100131.84;7659658;32;37501;-77
2021/12/31 18:18:45;;;;;;;13.80;8.02;;;;;;;12.67;61.85;100133.00;7659618;32;39310;-77
2021/12/31 18:23:02;;;;;;;12.25;7.32;;;;;;;12.72;61.52;100134.91;7659468;32;39956;-76
2021/12/31 18:27:18;;;;;;;23.58;12.85;;;;;;;12.86;61.04;100137.88;7659405;32;37958;-77
2021/12/31 18:31:34;;;;;;;16.60;10.48;;;;;;;12.74;61.09;100133.53;7645938;32;37121;-76
2021/12/31 18:35:50;;;;;;;11.63;7.28;;;;;;;12.59;61.32;100136.31;7659455;32;39089;-77
2021/12/31 18:40:07;;;;;;;14.38;7.00;;;;;;;12.55;61.69;100132.47;7659348;32;39870;-78
2021/12/31 18:44:23;;;;;;;11.45;6.53;;;;;;;12.37;62.32;100134.69;7659198;32;38006;-76
2021/12/31 18:48:40;;;;;;;12.68;6.47;;;;;;;12.43;61.86;100138.25;7659356;32;37124;-77
2021/12/31 18:52:56;;;;;;;12.50;7.07;;;;;;;12.27;62.15;100140.19;7659068;32;40257;-77
2021/12/31 18:57:12;;;;;;;21.98;11.63;;;;;;;12.37;61.48;100125.69;7659211;32;40083;-77
2021/12/31 19:01:28;;;;;;;22.45;12.30;;;;;;;12.41;61.10;100129.50;7658834;32;38032;-76
2021/12/31 19:05:45;;;;;;;18.45;9.85;;;;;;;12.30;61.21;100117.75;7658925;32;37756;-76
2021/12/31 19:10:01;;;;;;;13.20;6.85;;;;;;;12.35;61.00;100115.03;7659100;32;39340;-77
2021/12/31 19:14:17;;;;;;;10.15;5.40;;;;;;;12.42;61.47;100120.22;7658795;32;40041;-77
2021/12/31 19:18:34;;;;;;;10.32;5.47;;;;;;;12.36;60.89;100107.63;7658805;32;38212;-77
2021/12/31 19:22:50;;;;;;;9.63;5.07;;;;;;;12.32;60.88;100110.09;7645172;32;37101;-76
2021/12/31 19:27:06;;;;;;;9.55;5.50;;;;;;;12.36;60.51;100099.44;7658920;32;39495;-76
2021/12/31 19:31:23;;;;;;;8.40;4.95;;;;;;;12.33;60.61;100099.97;7658794;32;40522;-77
2021/12/31 19:35:40;;;;;;;9.43;5.40;;;;;;;12.20;61.11;100113.12;7658561;32;38018;-75
2021/12/31 19:39:56;;;;;;;8.35;4.97;;;;;;;12.07;61.50;100123.78;7658885;32;38171;-74
2021/12/31 19:44:12;;;;;;;8.95;4.57;;;;;;;12.34;60.61;100126.22;7658590;32;39368;-76
2021/12/31 19:48:28;;;;;;;7.15;4.32;;;;;;;12.41;60.21;100140.44;7658618;32;41308;-76